Time;durP1;ratioP1;P1;durP2;ratioP2;P2;SDS_P1;SDS_P2;PMS_P1;PMS_P2;Temp;Humidity;BMP_temperature;BMP_pressure;BME280_temperature;BME280_humidity;BME280_pressure;Samples;Min_cycle;Max_cycle;Signal;HPM_P1;HPM_P2
2021/03/01 00:01:51;;;;;;;13.43;3.50;;;;;;;4.28;76.93;102943.84;6388184;27;20380;-73
2021/03/01 00:05:15;;;;;;;13.80;3.47;;;;;;;4.27;77.32;102936.72;6388201;27;20491;-73
2021/03/01 00:08:27;;;;;;;4.07;2.97;;;;;;;4.31;77.55;102927.38;6388943;27;20200;-73
2021/03/01 00:11:33;;;;;;;8.23;3.27;;;;;;;4.28;77.81;102922.22;6387730;27;20183;-73
2021/03/01 00:14:45;;;;;;;3.93;2.70;;;;;;;4.13;78.60;102923.47;6389243;27;20192;-73
2021/03/01 00:17:48;;;;;;;6.23;3.03;;;;;;;4.09;78.60;102930.09;6388843;27;20183;-73
2021/03/01 00:20:51;;;;;;;4.10;2.80;;;;;;;4.03;79.25;102928.75;6389094;27;20191;-73
2021/03/01 00:23:56;;;;;;;3.80;2.80;;;;;;;4.10;79.46;102918.31;6387655;27;20189;-73
2021/03/01 00:26:59;;;;;;;5.67;2.97;;;;;;;3.88;79.22;102918.34;6388677;27;20191;-73
2021/03/01 00:30:05;;;;;;;6.43;2.63;;;;;;;3.86;79.59;102915.75;6388959;27;20260;-73
2021/03/01 00:33:21;;;;;;;4.93;2.57;;;;;;;3.91;79.91;102915.38;6387490;27;20519;-73
2021/03/01 00:36:24;;;;;;;3.20;2.97;;;;;;;3.81;79.59;102923.38;6388876;27;20223;-74
2021/03/01 00:39:32;;;;;;;2.97;2.77;;;;;;;3.70;80.83;102921.53;6387407;27;20185;-73
2021/03/01 00:42:36;;;;;;;3.60;2.80;;;;;;;3.66;80.47;102920.06;6388777;27;20192;-73
2021/03/01 00:45:39;;;;;;;5.43;2.80;;;;;;;3.64;80.94;102916.63;6388031;27;20269;-74
2021/03/01 00:48:44;;;;;;;5.90;2.43;;;;;;;3.82;80.45;102914.28;6388302;27;20211;-73
2021/03/01 00:51:47;;;;;;;2.67;2.50;;;;;;;3.71;80.79;102933.19;6388422;27;20185;-72
2021/03/01 00:54:56;;;;;;;4.40;2.90;;;;;;;3.58;81.12;102927.91;6369834;28;20206;-72
2021/03/01 00:57:59;;;;;;;6.73;2.97;;;;;;;3.41;81.23;102947.28;6388139;28;20190;-72
2021/03/01 01:01:11;;;;;;;5.70;2.70;;;;;;;3.37;82.22;102945.78;6388359;28;20184;-73
2021/03/01 01:04:32;;;;;;;7.37;2.80;;;;;;;2.97;83.28;102937.22;6388087;28;20188;-72
2021/03/01 01:07:38;;;;;;;8.87;3.10;;;;;;;3.04;84.19;102937.59;6387019;28;20408;-73
2021/03/01 01:10:45;;;;;;;4.13;2.70;;;;;;;3.04;84.24;102938.44;6386975;28;20490;-73
2021/03/01 01:13:49;;;;;;;2.50;2.33;;;;;;;3.19;83.73;102925.63;6386841;28;20219;-73
2021/03/01 01:16:52;;;;;;;6.20;2.53;;;;;;;3.25;83.85;102919.75;6387025;28;20207;-72
2021/03/01 01:19:56;;;;;;;2.57;2.37;;;;;;;3.34;82.47;102912.78;6387923;28;20205;-72
2021/03/01 01:23:00;;;;;;;3.90;2.60;;;;;;;3.44;82.10;102908.38;6390139;27;20525;-73
2021/03/01 01:26:10;;;;;;;2.20;2.10;;;;;;;3.51;80.81;102899.69;6391932;27;20192;-73
2021/03/01 01:29:13;;;;;;;3.80;2.63;;;;;;;3.64;80.45;102884.22;6392181;27;20184;-73
2021/03/01 01:32:21;;;;;;;5.27;2.60;;;;;;;3.58;80.62;102884.72;6391776;27;20216;-72
2021/03/01 01:35:25;;;;;;;5.40;2.33;;;;;;;3.52;80.41;102869.00;6393076;27;20252;-73
2021/03/01 01:38:33;;;;;;;7.60;2.67;;;;;;;3.58;80.36;102871.22;6392642;27;20183;-73
2021/03/01 01:41:37;;;;;;;6.53;2.40;;;;;;;3.66;80.68;102855.25;6392917;27;20255;-72
2021/03/01 01:44:41;;;;;;;5.30;2.30;;;;;;;3.65;80.29;102852.66;6382701;27;20297;-73
2021/03/01 01:47:45;;;;;;;4.07;3.30;;;;;;;3.67;80.06;102845.34;6365859;28;20208;-73
2021/03/01 01:50:48;;;;;;;2.67;2.57;;;;;;;3.40;79.81;102848.38;6366796;28;20216;-73
2021/03/01 01:53:53;;;;;;;5.43;2.70;;;;;;;3.27;81.68;102844.94;6366656;28;20217;-72
2021/03/01 01:56:58;;;;;;;4.87;2.27;;;;;;;3.22;81.67;102839.06;6365706;28;20525;-73
2021/03/01 02:00:07;;;;;;;2.43;2.23;;;;;;;2.97;83.25;102839.25;6365679;28;20185;-72
2021/03/01 02:03:50;;;;;;;3.80;2.13;;;;;;;3.24;82.95;102837.09;6365350;28;20189;-73
2021/03/01 02:07:09;;;;;;;2.73;2.33;;;;;;;3.11;83.13;102842.59;6366777;28;20188;-73
2021/03/01 02:10:43;;;;;;;4.57;2.50;;;;;;;2.99;84.55;102851.66;6365359;28;20409;-72
2021/03/01 02:14:00;;;;;;;2.37;2.20;;;;;;;3.06;84.25;102844.78;6366460;28;20301;-73
2021/03/01 02:17:06;;;;;;;2.47;2.27;;;;;;;3.12;84.32;102849.72;6366492;28;20192;-73
2021/03/01 02:20:15;;;;;;;2.00;1.90;;;;;;;3.11;83.99;102841.72;6366001;28;20253;-73
2021/03/01 02:23:25;;;;;;;3.90;2.40;;;;;;;3.04;84.10;102827.00;6365280;28;20265;-72
2021/03/01 02:26:31;;;;;;;2.30;2.20;;;;;;;2.76;84.93;102824.75;6364724;28;20190;-72
2021/03/01 02:29:40;;;;;;;3.77;2.00;;;;;;;2.76;86.15;102819.34;6365768;28;20186;-73
2021/03/01 02:32:50;;;;;;;3.03;2.10;;;;;;;2.89;85.17;102809.34;6364673;28;20571;-73
2021/03/01 02:36:04;;;;;;;3.83;1.90;;;;;;;2.87;85.82;102816.69;6365330;28;20190;-73
2021/03/01 02:39:15;;;;;;;1.90;1.90;;;;;;;3.18;84.00;102813.31;6365883;28;20188;-73
2021/03/01 02:42:28;;;;;;;2.67;1.93;;;;;;;3.15;83.30;102800.06;6364650;28;20473;-74
2021/03/01 02:45:32;;;;;;;6.10;2.33;;;;;;;3.03;83.53;102803.72;6364658;28;20409;-73
2021/03/01 02:48:44;;;;;;;2.50;2.03;;;;;;;3.17;82.81;102792.69;6363205;28;20188;-74
2021/03/01 02:51:53;;;;;;;2.30;2.10;;;;;;;2.98;83.49;102782.50;6365570;28;20185;-73
2021/03/01 02:55:01;;;;;;;3.20;2.13;;;;;;;2.92;83.56;102776.75;6365115;28;20216;-73
2021/03/01 02:58:26;;;;;;;2.30;2.10;;;;;;;2.86;84.52;102750.25;6364938;28;20196;-73
2021/03/01 03:01:46;;;;;;;2.33;2.03;;;;;;;2.82;84.45;102743.41;6365049;28;20227;-73
2021/03/01 03:05:01;;;;;;;3.00;2.10;;;;;;;2.64;85.55;102739.44;6365003;28;20188;-74
2021/03/01 03:08:25;;;;;;;2.23;2.00;;;;;;;2.72;85.58;102728.94;6364438;28;20202;-74
2021/03/01 03:11:33;;;;;;;2.00;1.90;;;;;;;2.82;84.68;102721.84;6364885;28;20183;-74
2021/03/01 03:14:59;;;;;;;3.70;2.10;;;;;;;2.88;84.52;102711.41;6365057;28;20213;-74
2021/03/01 03:18:14;;;;;;;2.30;2.10;;;;;;;2.82;84.19;102689.47;6365036;28;20215;-74
2021/03/01 03:21:20;;;;;;;1.97;1.87;;;;;;;2.82;85.21;102681.38;6364642;28;20184;-73
2021/03/01 03:24:27;;;;;;;1.93;1.90;;;;;;;2.80;84.51;102680.66;6364592;28;20273;-74
2021/03/01 03:27:34;;;;;;;4.73;1.70;;;;;;;2.77;85.09;102670.13;6364864;28;20286;-74
2021/03/01 03:30:38;;;;;;;2.40;1.70;;;;;;;2.73;85.39;102674.03;6390136;27;20188;-74
2021/03/01 03:33:46;;;;;;;2.40;1.97;;;;;;;3.00;83.78;102661.03;6390161;27;20218;-73
2021/03/01 03:37:04;;;;;;;2.10;2.00;;;;;;;3.03;83.27;102658.09;6388806;27;20192;-74
2021/03/01 03:40:26;;;;;;;1.63;1.63;;;;;;;2.96;84.05;102648.78;6388675;27;20192;-74
2021/03/01 03:43:45;;;;;;;3.17;2.20;;;;;;;2.98;83.63;102657.59;6389864;27;20188;-74
2021/03/01 03:47:09;;;;;;;1.67;1.67;;;;;;;2.93;83.36;102665.19;6387617;27;20421;-74
2021/03/01 03:50:34;;;;;;;2.40;1.93;;;;;;;2.89;84.31;102663.72;6388526;27;20224;-74
2021/03/01 03:53:57;;;;;;;2.50;1.80;;;;;;;2.92;83.60;102652.72;6389727;27;20322;-74
2021/03/01 03:57:15;;;;;;;3.03;1.83;;;;;;;2.93;83.73;102663.34;6389381;27;20185;-73
2021/03/01 04:00:40;;;;;;;2.47;2.00;;;;;;;2.94;83.24;102664.22;6388421;27;20206;-73
2021/03/01 04:04:04;;;;;;;2.40;1.70;;;;;;;3.15;82.44;102667.88;6388114;27;20375;-75
2021/03/01 04:07:18;;;;;;;2.10;2.03;;;;;;;3.17;81.80;102663.22;6389508;27;20207;-73
2021/03/01 04:10:34;;;;;;;4.63;2.30;;;;;;;3.06;82.89;102660.53;6388033;27;20471;-74
2021/03/01 04:13:51;;;;;;;2.00;1.90;;;;;;;3.01;82.56;102642.03;6388513;27;20230;-73
2021/03/01 04:17:10;;;;;;;5.80;2.37;;;;;;;2.86;83.51;102658.59;6388985;27;20185;-73
2021/03/01 04:20:26;;;;;;;5.60;2.00;;;;;;;2.82;83.80;102646.34;6388805;27;20259;-73
2021/03/01 04:23:34;;;;;;;3.50;1.60;;;;;;;2.93;83.21;102632.84;6387750;27;20525;-74
2021/03/01 04:26:44;;;;;;;2.90;2.03;;;;;;;2.92;83.32;102647.31;6388812;27;20246;-73
2021/03/01 04:29:52;;;;;;;4.30;2.00;;;;;;;2.81;84.24;102628.44;6387535;27;20415;-73
2021/03/01 04:33:16;;;;;;;1.90;1.80;;;;;;;2.92;82.79;102631.13;6388845;27;20234;-73
2021/03/01 04:36:41;;;;;;;4.13;2.10;;;;;;;2.73;84.63;102626.38;6388769;27;20193;-74
2021/03/01 04:39:49;;;;;;;2.00;2.00;;;;;;;2.84;83.74;102628.19;6388364;27;20184;-72
2021/03/01 04:42:56;;;;;;;3.03;1.80;;;;;;;2.82;83.28;102630.16;6388757;27;20190;-72
2021/03/01 04:46:03;;;;;;;1.90;1.80;;;;;;;2.68;83.65;102633.97;6387594;27;20239;-73
2021/03/01 04:49:17;;;;;;;1.90;1.67;;;;;;;2.82;84.13;102624.78;6387320;27;20518;-73
2021/03/01 04:52:33;;;;;;;2.10;1.80;;;;;;;2.83;83.70;102621.94;6388602;27;20192;-73
2021/03/01 04:55:48;;;;;;;2.00;1.67;;;;;;;2.87;83.62;102609.09;6388375;28;20209;-72
2021/03/01 04:58:56;;;;;;;2.00;1.90;;;;;;;2.82;83.74;102603.22;6388035;27;20185;-73
2021/03/01 05:02:00;;;;;;;2.00;1.93;;;;;;;2.89;83.00;102604.41;6388423;28;20261;-73
2021/03/01 05:05:24;;;;;;;2.63;1.60;;;;;;;2.92;82.98;102610.44;6387706;28;20202;-72
2021/03/01 05:08:38;;;;;;;6.53;1.87;;;;;;;3.12;81.82;102606.09;6388049;28;20249;-73
2021/03/01 05:11:53;;;;;;;2.30;2.10;;;;;;;3.00;82.10;102602.59;6388309;28;20191;-72
2021/03/01 05:15:07;;;;;;;1.90;1.80;;;;;;;3.05;81.84;102597.66;6387016;28;20220;-74
2021/03/01 05:18:29;;;;;;;2.10;2.00;;;;;;;3.04;82.03;102598.63;6388243;28;20184;-72
2021/03/01 05:21:40;;;;;;;2.00;1.90;;;;;;;3.04;82.08;102597.78;6387923;28;20245;-73
2021/03/01 05:24:47;;;;;;;2.50;1.90;;;;;;;2.94;82.86;102603.06;6388369;28;20233;-72
2021/03/01 05:27:55;;;;;;;2.93;1.63;;;;;;;2.98;82.12;102603.66;6388183;28;20183;-72
2021/03/01 05:31:10;;;;;;;2.57;1.73;;;;;;;3.02;82.33;102606.00;6386845;28;20184;-73
2021/03/01 05:34:22;;;;;;;2.10;2.00;;;;;;;2.99;82.19;102608.09;6387729;28;20217;-72
2021/03/01 05:37:31;;;;;;;1.80;1.70;;;;;;;3.01;82.33;102609.66;6388118;28;20195;-72
2021/03/01 05:40:35;;;;;;;4.57;2.10;;;;;;;3.12;81.43;102611.50;6387579;28;20193;-72
2021/03/01 05:43:40;;;;;;;1.87;1.77;;;;;;;3.07;81.60;102600.22;6387542;28;20194;-73
2021/03/01 05:46:47;;;;;;;4.50;2.10;;;;;;;3.01;81.59;102595.31;6387009;28;20228;-72
2021/03/01 05:49:52;;;;;;;2.17;2.07;;;;;;;2.96;81.88;102586.75;6388001;28;20185;-72
2021/03/01 05:53:00;;;;;;;1.67;1.63;;;;;;;3.05;81.82;102599.50;6368737;28;20231;-73
2021/03/01 05:56:08;;;;;;;2.83;2.13;;;;;;;3.14;81.07;102587.94;6387742;28;20244;-73
2021/03/01 05:59:13;;;;;;;2.30;2.00;;;;;;;3.15;80.41;102589.66;6387621;28;20267;-73
2021/03/01 06:02:22;;;;;;;2.83;1.90;;;;;;;3.21;80.69;102588.31;6387331;28;20185;-72
2021/03/01 06:05:36;;;;;;;3.10;1.70;;;;;;;3.18;80.21;102594.81;6387425;28;20189;-73
2021/03/01 06:08:41;;;;;;;9.50;2.13;;;;;;;3.18;80.10;102589.41;6386520;27;20383;-72
2021/03/01 06:11:48;;;;;;;2.60;2.00;;;;;;;3.13;80.92;102607.81;6391888;27;20197;-72
2021/03/01 06:14:51;;;;;;;4.23;1.87;;;;;;;3.29;80.37;102608.25;6391688;27;20216;-72
2021/03/01 06:18:10;;;;;;;2.20;1.80;;;;;;;3.34;79.35;102600.63;6390659;27;20442;-72
2021/03/01 06:21:16;;;;;;;8.23;1.93;;;;;;;3.35;79.39;102602.34;6390045;27;20208;-72
2021/03/01 06:24:19;;;;;;;5.67;2.10;;;;;;;3.29;79.25;102592.06;6391444;27;20188;-72
2021/03/01 06:27:23;;;;;;;2.20;1.93;;;;;;;3.39;78.64;102609.19;6391240;27;20227;-73
2021/03/01 06:30:28;;;;;;;3.00;1.70;;;;;;;3.42;79.04;102586.50;6392077;27;20181;-72
2021/03/01 06:33:32;;;;;;;3.00;2.10;;;;;;;3.49;78.26;102579.63;6390338;27;20472;-73
2021/03/01 06:36:53;;;;;;;3.37;1.87;;;;;;;3.47;78.69;102563.53;6391552;27;20221;-72
2021/03/01 06:39:57;;;;;;;7.90;2.10;;;;;;;3.48;78.23;102565.28;6391365;27;20217;-73
2021/03/01 06:43:09;;;;;;;3.60;2.13;;;;;;;3.36;78.33;102576.25;6391348;27;20248;-72
2021/03/01 06:46:14;;;;;;;3.27;2.00;;;;;;;3.53;78.86;102573.84;6390942;27;20235;-72
2021/03/01 06:49:20;;;;;;;3.40;1.80;;;;;;;3.64;77.94;102554.03;6390936;27;20248;-73
2021/03/01 06:52:36;;;;;;;5.10;1.80;;;;;;;3.64;77.40;102568.41;6389715;27;20532;-72
2021/03/01 06:55:56;;;;;;;3.60;1.90;;;;;;;3.75;77.08;102562.91;6391379;27;20247;-73
2021/03/01 06:59:10;;;;;;;4.87;1.83;;;;;;;3.73;77.12;102554.09;6391190;27;20247;-73
2021/03/01 07:02:13;;;;;;;3.43;1.87;;;;;;;3.84;77.30;102544.22;6391113;27;20214;-72
2021/03/01 07:05:17;;;;;;;1.83;1.73;;;;;;;3.89;76.68;102552.78;6390669;27;20185;-73
2021/03/01 07:08:40;;;;;;;8.03;2.20;;;;;;;3.92;76.43;102541.72;6389242;27;20594;-72
2021/03/01 07:11:46;;;;;;;4.63;1.97;;;;;;;3.96;75.50;102543.16;6389380;27;20358;-72
2021/03/01 07:14:49;;;;;;;1.90;1.80;;;;;;;3.88;76.54;102541.09;6352939;27;20400;-73
2021/03/01 07:17:53;;;;;;;4.90;1.90;;;;;;;4.00;76.35;102525.72;6338560;28;20369;-73
2021/03/01 07:20:57;;;;;;;7.10;1.80;;;;;;;4.02;76.14;102515.63;6339173;28;20190;-72
2021/03/01 07:24:10;;;;;;;6.43;2.00;;;;;;;4.01;76.17;102503.09;6339202;28;20191;-73
2021/03/01 07:27:26;;;;;;;4.27;1.83;;;;;;;4.02;76.46;102504.81;6327127;27;20382;-73
2021/03/01 07:30:30;;;;;;;9.87;1.90;;;;;;;4.20;75.27;102503.19;6313898;28;20225;-73
2021/03/01 07:33:33;;;;;;;3.07;1.60;;;;;;;4.13;75.85;102507.44;6313497;28;20225;-73
2021/03/01 07:36:37;;;;;;;2.17;1.63;;;;;;;4.04;75.29;102556.84;6313436;28;20467;-72
2021/03/01 07:39:41;;;;;;;3.73;2.07;;;;;;;4.14;75.89;102565.84;6313523;28;20255;-72
2021/03/01 07:42:46;;;;;;;3.43;2.30;;;;;;;4.18;75.70;102578.13;6313541;28;20268;-73
2021/03/01 07:45:50;;;;;;;5.03;2.00;;;;;;;4.33;75.08;102568.69;6324330;28;20227;-72
2021/03/01 07:48:53;;;;;;;9.43;2.30;;;;;;;4.35;74.33;102577.50;6337634;28;20404;-72
2021/03/01 07:51:59;;;;;;;10.50;1.90;;;;;;;4.38;74.41;102577.25;6338586;28;20187;-72
2021/03/01 07:55:06;;;;;;;8.57;1.53;;;;;;;4.36;74.22;102579.22;6338469;28;20218;-71
2021/03/01 07:58:16;;;;;;;6.80;1.83;;;;;;;4.25;73.73;102571.19;6337156;28;20405;-73
2021/03/01 08:01:19;;;;;;;8.80;1.70;;;;;;;4.32;75.11;102566.94;6338302;28;20251;-73
2021/03/01 08:04:33;;;;;;;6.43;2.00;;;;;;;4.40;74.28;102577.94;6338575;28;20235;-74
2021/03/01 08:07:41;;;;;;;4.13;1.87;;;;;;;4.43;74.28;102574.97;6337264;28;20251;-72
2021/03/01 08:10:45;;;;;;;3.97;1.73;;;;;;;4.54;73.58;102576.75;6338199;28;20187;-73
2021/03/01 08:13:50;;;;;;;2.93;1.80;;;;;;;4.40;75.02;102564.44;6338119;28;20223;-73
2021/03/01 08:17:34;;;;;;;4.87;1.80;;;;;;;4.45;74.25;102567.59;6337858;28;20184;-73
2021/03/01 08:20:54;;;;;;;7.20;1.70;;;;;;;4.56;73.28;102559.41;6337752;28;20250;-73
2021/03/01 08:23:58;;;;;;;5.13;2.13;;;;;;;4.61;73.77;102562.53;6337487;28;20353;-73
2021/03/01 08:27:48;;;;;;;4.03;2.00;;;;;;;4.73;73.23;102550.63;6336524;28;20438;-73
2021/03/01 08:30:53;;;;;;;9.90;1.90;;;;;;;4.78;72.99;102544.78;6302565;28;20210;-74
2021/03/01 08:34:38;;;;;;;2.73;1.77;;;;;;;4.68;72.95;102558.28;6336094;28;20467;-74
2021/03/01 08:37:45;;;;;;;4.07;2.10;;;;;;;4.87;71.76;102535.88;6336444;28;20313;-74
2021/03/01 08:40:53;;;;;;;8.43;1.60;;;;;;;4.77;72.52;102541.25;6336241;28;20486;-74
2021/03/01 08:43:59;;;;;;;4.00;2.10;;;;;;;4.87;71.26;102525.03;6337190;28;20186;-74
2021/03/01 08:47:03;;;;;;;7.20;1.90;;;;;;;4.97;71.32;102526.78;6336687;28;20235;-73
2021/03/01 08:50:09;;;;;;;6.60;2.10;;;;;;;5.07;71.09;102527.66;6336701;28;20469;-74
2021/03/01 08:53:21;;;;;;;12.37;2.23;;;;;;;5.22;70.24;102519.09;6336077;28;20192;-73
2021/03/01 08:56:26;;;;;;;5.27;1.93;;;;;;;5.09;70.05;102530.19;6335911;28;20212;-73
2021/03/01 08:59:30;;;;;;;6.60;1.57;;;;;;;5.08;69.33;102523.91;6336095;28;20184;-73
2021/03/01 09:02:34;;;;;;;7.13;1.83;;;;;;;5.15;69.77;102526.09;6336094;28;20406;-73
2021/03/01 09:06:04;;;;;;;10.10;1.70;;;;;;;5.20;69.09;102529.22;6335964;28;20480;-73
2021/03/01 09:09:08;;;;;;;3.77;1.60;;;;;;;5.40;69.18;102536.34;6337091;28;20185;-73
2021/03/01 09:12:18;;;;;;;12.00;1.80;;;;;;;5.60;68.21;102527.22;6337213;28;20194;-74
2021/03/01 09:15:21;;;;;;;7.60;2.07;;;;;;;5.64;68.03;102517.81;6337201;28;20213;-74
2021/03/01 09:18:30;;;;;;;4.40;1.60;;;;;;;5.67;67.72;102507.53;6336874;28;20207;-74
2021/03/01 09:21:37;;;;;;;12.90;2.13;;;;;;;5.74;67.83;102499.69;6337092;28;20184;-73
2021/03/01 09:24:41;;;;;;;5.87;1.60;;;;;;;5.79;67.50;102502.81;6335662;28;20526;-72
2021/03/01 09:27:46;;;;;;;15.97;1.70;;;;;;;5.75;66.94;102496.00;6336653;28;20352;-74
2021/03/01 09:31:01;;;;;;;8.13;2.03;;;;;;;5.81;66.84;102472.88;6335671;28;20476;-72
2021/03/01 09:34:07;;;;;;;7.90;2.00;;;;;;;5.99;65.88;102482.84;6335697;28;20309;-72
2021/03/01 09:37:11;;;;;;;8.70;2.00;;;;;;;6.02;65.45;102485.25;6335481;28;20377;-72
2021/03/01 09:40:18;;;;;;;7.97;2.37;;;;;;;6.07;65.24;102469.41;6318255;28;20204;-72
2021/03/01 09:43:23;;;;;;;4.67;1.90;;;;;;;6.10;64.73;102496.22;6336073;28;20216;-72
2021/03/01 09:46:26;;;;;;;6.93;1.77;;;;;;;6.06;65.62;102505.63;6340438;28;20229;-72
2021/03/01 09:49:34;;;;;;;10.73;2.10;;;;;;;6.05;65.50;102503.94;6341550;28;20213;-73
2021/03/01 09:52:39;;;;;;;4.53;1.80;;;;;;;6.18;64.72;102504.47;6340331;28;20209;-73
2021/03/01 09:55:44;;;;;;;4.13;1.70;;;;;;;6.17;64.81;102491.91;6340739;28;20210;-73
2021/03/01 09:58:47;;;;;;;15.57;2.37;;;;;;;6.23;65.15;102488.63;6341027;28;20252;-71
2021/03/01 10:01:50;;;;;;;7.90;2.10;;;;;;;6.15;65.13;102487.63;6341416;28;20186;-72
2021/03/01 10:05:10;;;;;;;5.17;2.13;;;;;;;6.10;64.67;102488.09;6341104;28;20194;-73
2021/03/01 10:08:21;;;;;;;7.87;2.03;;;;;;;6.13;65.38;102498.63;6339594;28;20392;-72
2021/03/01 10:11:25;;;;;;;2.13;1.87;;;;;;;6.21;64.50;102498.72;6339407;28;20530;-73
2021/03/01 10:14:30;;;;;;;3.03;2.07;;;;;;;6.26;64.98;102511.84;6340938;28;20193;-74
2021/03/01 10:17:34;;;;;;;4.37;2.33;;;;;;;6.29;64.60;102523.22;6339950;28;20183;-73
2021/03/01 10:21:00;;;;;;;6.30;2.40;;;;;;;6.32;64.53;102500.41;6322534;28;20209;-74
2021/03/01 10:24:07;;;;;;;11.07;2.47;;;;;;;6.37;64.03;102516.25;6339750;28;20225;-74
2021/03/01 10:27:11;;;;;;;8.10;1.77;;;;;;;6.42;64.07;102494.94;6339935;28;20212;-74
2021/03/01 10:30:18;;;;;;;3.27;2.10;;;;;;;6.40;64.14;102496.94;6340262;28;20189;-71
2021/03/01 10:33:24;;;;;;;10.17;2.20;;;;;;;6.51;64.05;102521.16;6340410;28;20187;-72
2021/03/01 10:36:33;;;;;;;5.23;1.80;;;;;;;6.32;64.25;102544.63;6340433;28;20217;-72
2021/03/01 10:39:38;;;;;;;10.20;1.93;;;;;;;6.32;64.56;102553.78;6340605;28;20190;-74
2021/03/01 10:42:41;;;;;;;15.07;3.60;;;;;;;6.38;64.79;102554.03;6340284;28;20218;-74
2021/03/01 10:45:49;;;;;;;4.77;2.20;;;;;;;6.52;63.85;102550.00;6339295;28;20528;-75
2021/03/01 10:48:53;;;;;;;5.50;2.30;;;;;;;6.56;62.75;102556.81;6340458;28;20363;-73
2021/03/01 10:51:59;;;;;;;4.10;1.93;;;;;;;6.66;61.97;102565.75;6339429;28;20194;-75
2021/03/01 10:55:03;;;;;;;3.70;1.90;;;;;;;6.72;61.68;102562.47;6339562;28;20210;-74
2021/03/01 10:58:11;;;;;;;5.50;2.77;;;;;;;6.70;60.47;102553.63;6339995;28;20194;-74
2021/03/01 11:01:14;;;;;;;4.67;1.93;;;;;;;6.70;59.27;102564.47;6339638;28;20190;-74
2021/03/01 11:04:21;;;;;;;5.50;2.03;;;;;;;6.69;60.27;102551.91;6338418;28;20477;-75
2021/03/01 11:07:28;;;;;;;4.60;1.60;;;;;;;6.78;59.11;102534.72;6338741;28;20415;-74
2021/03/01 11:10:32;;;;;;;4.90;2.13;;;;;;;6.82;59.75;102541.56;6340064;28;20186;-75
2021/03/01 11:13:35;;;;;;;13.90;3.33;;;;;;;6.79;58.78;102541.84;6338286;28;20244;-73
2021/03/01 11:16:39;;;;;;;4.53;2.43;;;;;;;6.71;58.16;102549.88;6339514;28;20279;-74
2021/03/01 11:19:43;;;;;;;7.63;2.20;;;;;;;6.71;58.91;102549.88;6339239;28;20186;-73
2021/03/01 11:22:47;;;;;;;6.67;2.03;;;;;;;6.76;58.67;102544.88;6339066;28;20193;-74
2021/03/01 11:25:50;;;;;;;7.57;2.40;;;;;;;6.71;59.15;102539.03;6338699;28;20458;-74
2021/03/01 11:28:57;;;;;;;4.00;1.67;;;;;;;6.74;59.11;102527.88;6337937;28;20384;-74
2021/03/01 11:32:00;;;;;;;4.60;1.90;;;;;;;6.76;58.55;102539.44;6338025;28;20183;-73
2021/03/01 11:35:04;;;;;;;5.57;1.83;;;;;;;6.82;58.68;102530.69;6338835;28;20186;-74
2021/03/01 11:38:12;;;;;;;9.73;2.37;;;;;;;6.53;58.86;102502.88;6337864;28;20214;-72
2021/03/01 11:41:17;;;;;;;4.57;1.87;;;;;;;6.74;58.29;102550.44;6337553;28;20373;-74
2021/03/01 11:44:24;;;;;;;2.63;1.80;;;;;;;6.81;58.18;102548.84;6332346;28;20234;-74
2021/03/01 11:47:31;;;;;;;12.60;2.67;;;;;;;6.77;57.72;102544.72;6312942;28;20255;-73
2021/03/01 11:50:35;;;;;;;9.13;3.50;;;;;;;6.87;58.17;102539.25;6313219;28;20187;-74
2021/03/01 11:53:44;;;;;;;9.03;1.83;;;;;;;6.68;58.47;102533.91;6313323;28;20184;-74
2021/03/01 11:56:47;;;;;;;11.23;2.17;;;;;;;6.92;58.62;102531.50;6311884;28;20441;-74
2021/03/01 11:59:50;;;;;;;8.63;2.03;;;;;;;6.97;58.57;102550.88;6313191;28;20187;-73
2021/03/01 12:02:55;;;;;;;7.03;1.70;;;;;;;6.94;58.29;102540.34;6313121;28;20262;-74
2021/03/01 12:06:02;;;;;;;4.90;1.70;;;;;;;6.67;58.58;102548.50;6312488;28;20258;-74
2021/03/01 12:09:10;;;;;;;2.53;1.90;;;;;;;6.72;58.99;102540.75;6311468;28;20474;-74
2021/03/01 12:12:14;;;;;;;7.63;1.87;;;;;;;6.56;59.40;102540.53;6312249;28;20187;-73
2021/03/01 12:15:20;;;;;;;11.33;2.43;;;;;;;6.83;58.44;102527.00;6312630;28;20193;-73
2021/03/01 12:18:25;;;;;;;6.87;2.00;;;;;;;6.93;59.01;102552.22;6311468;28;20360;-73
2021/03/01 12:21:29;;;;;;;9.10;1.87;;;;;;;6.88;58.36;102559.97;6312359;28;20191;-72
2021/03/01 12:24:33;;;;;;;7.17;2.00;;;;;;;7.04;58.37;102557.41;6312493;28;20187;-73
2021/03/01 12:27:38;;;;;;;17.80;2.27;;;;;;;6.89;58.77;102553.50;6312609;28;20271;-73
2021/03/01 12:30:41;;;;;;;17.23;2.53;;;;;;;7.02;58.17;102540.44;6311289;28;20199;-73
2021/03/01 12:33:45;;;;;;;5.73;2.10;;;;;;;7.19;57.05;102533.31;6312886;28;20194;-73
2021/03/01 12:36:49;;;;;;;7.30;1.80;;;;;;;7.22;56.90;102530.28;6311294;28;20569;-73
2021/03/01 12:40:11;;;;;;;12.80;2.07;;;;;;;7.18;56.69;102527.03;6312414;28;20187;-73
2021/03/01 12:43:19;;;;;;;2.10;1.90;;;;;;;7.29;56.44;102540.38;6312124;28;20191;-73
2021/03/01 12:46:22;;;;;;;9.23;1.70;;;;;;;7.42;56.52;102519.09;6328420;28;20377;-75
2021/03/01 12:49:26;;;;;;;5.23;1.63;;;;;;;7.14;57.16;102512.03;6336129;28;20370;-73
2021/03/01 12:52:29;;;;;;;3.60;1.50;;;;;;;7.29;57.16;102512.38;6336535;28;20262;-73
2021/03/01 12:55:34;;;;;;;4.53;1.80;;;;;;;7.25;57.87;102521.84;6337236;28;20225;-73
2021/03/01 12:58:38;;;;;;;6.90;1.80;;;;;;;7.32;57.07;102522.91;6337227;28;20224;-74
2021/03/01 13:01:42;;;;;;;5.83;1.70;;;;;;;7.40;57.47;102515.69;6335945;28;20400;-73
2021/03/01 13:05:04;;;;;;;5.80;1.77;;;;;;;7.49;57.30;102520.22;6337258;28;20187;-74
2021/03/01 13:08:20;;;;;;;6.70;1.50;;;;;;;7.64;56.82;102512.34;6336896;28;20182;-74
2021/03/01 13:11:27;;;;;;;15.47;2.13;;;;;;;7.63;56.54;102516.06;6336791;28;20190;-73
2021/03/01 13:14:36;;;;;;;7.55;1.70;;;;;;;7.75;56.56;102497.66;6336720;28;20214;-73
2021/03/01 13:17:40;;;;;;;3.73;1.80;;;;;;;7.67;55.45;102497.59;6327586;28;20375;-73
2021/03/01 13:20:45;;;;;;;9.73;1.80;;;;;;;7.61;55.77;102500.94;6342216;28;20183;-73
2021/03/01 13:23:53;;;;;;;6.90;1.70;;;;;;;7.70;55.51;102510.88;6340819;28;20519;-73
2021/03/01 13:26:57;;;;;;;4.67;1.43;;;;;;;7.49;56.09;102506.63;6341829;28;20193;-73
2021/03/01 13:30:13;;;;;;;7.50;1.77;;;;;;;7.71;55.50;102508.00;6341650;28;20183;-72
2021/03/01 13:33:50;;;;;;;1.43;1.30;;;;;;;7.63;55.13;102509.81;6341944;28;20214;-73
2021/03/01 13:37:02;;;;;;;12.80;2.17;;;;;;;7.70;55.44;102500.00;6340915;28;20285;-72
2021/03/01 13:40:15;;;;;;;5.83;2.30;;;;;;;7.71;55.62;102507.13;6341423;28;20183;-71
2021/03/01 13:43:29;;;;;;;11.90;2.30;;;;;;;7.67;55.80;102497.59;6341356;28;20201;-73
2021/03/01 13:46:42;;;;;;;9.30;1.73;;;;;;;7.74;55.62;102495.94;6340238;28;20301;-72
2021/03/01 13:49:51;;;;;;;2.00;1.90;;;;;;;7.68;55.98;102502.03;6340060;28;20206;-72
2021/03/01 13:52:58;;;;;;;1.93;1.83;;;;;;;7.67;56.29;102511.19;6339854;28;20240;-73
2021/03/01 13:56:11;;;;;;;7.83;1.73;;;;;;;7.68;56.81;102513.72;6341132;28;20217;-73
2021/03/01 13:59:30;;;;;;;8.50;1.83;;;;;;;7.74;56.28;102523.13;6341445;28;20252;-73
2021/03/01 14:02:38;;;;;;;8.27;1.73;;;;;;;7.75;56.18;102522.13;6341170;28;20190;-72
2021/03/01 14:05:59;;;;;;;6.70;1.50;;;;;;;7.71;56.44;102534.28;6340772;28;20248;-73
2021/03/01 14:09:17;;;;;;;2.10;1.73;;;;;;;7.61;56.37;102545.25;6341255;28;20195;-73
2021/03/01 14:12:41;;;;;;;3.63;1.50;;;;;;;7.66;56.55;102537.50;6340617;28;20183;-73
2021/03/01 14:15:52;;;;;;;3.50;1.80;;;;;;;7.65;56.43;102541.25;6340830;28;20229;-74
2021/03/01 14:19:10;;;;;;;12.07;2.07;;;;;;;7.70;56.75;102543.47;6341101;28;20183;-73
2021/03/01 14:22:22;;;;;;;11.03;1.60;;;;;;;7.63;57.06;102536.97;6340702;28;20190;-73
2021/03/01 14:25:40;;;;;;;3.93;1.53;;;;;;;7.71;57.04;102550.59;6339417;28;20477;-73
2021/03/01 14:28:53;;;;;;;3.77;1.60;;;;;;;7.66;56.65;102547.50;6340492;28;20216;-73
2021/03/01 14:32:05;;;;;;;6.43;1.73;;;;;;;7.65;56.82;102534.94;6338832;28;20183;-73
2021/03/01 14:35:21;;;;;;;3.77;1.70;;;;;;;7.45;57.24;102534.25;6340506;28;20184;-73
2021/03/01 14:38:36;;;;;;;4.93;1.90;;;;;;;7.58;57.55;102540.13;6340282;28;20210;-73
2021/03/01 14:41:47;;;;;;;8.40;1.80;;;;;;;7.66;57.16;102542.06;6339141;28;20189;-73
2021/03/01 14:45:06;;;;;;;18.90;2.30;;;;;;;7.52;57.87;102536.19;6339280;28;20536;-73
2021/03/01 14:48:28;;;;;;;4.20;1.83;;;;;;;7.48;58.10;102534.78;6339255;28;20462;-73
2021/03/01 14:51:40;;;;;;;5.87;1.93;;;;;;;7.43;58.88;102542.56;6338180;28;20206;-73